Terminal Aerodrome Forecast
Issued by NWS

Home | Current Version | Previous Version | Graphics & Text | Print | Product List | Glossary On
Versions: 1 2 3 4 5 6 7 8 9 10 11 12 13 14 15 16 17 18
992
FTUS43 KTOP 111159 AAA
TAFMHK
TAF AMD
KMHK 111159Z 1112/1212 04007KT P6SM BKN009
      TEMPO 1114/1115 BKN012
     FM111500 06006KT P6SM BKN015
     FM111700 08007KT P6SM BKN022
     FM111900 18008KT P6SM SCT025 BKN150
     FM120800 35010G18KT P6SM SCT020=

USA.gov is the U.S. government's official web portal to all federal, state and local government web resources and services.